createdAt,value
2022-11-22T00:01:17.585Z,4.96
2022-11-22T00:06:20.285Z,4.99
2022-11-22T00:11:24.409Z,5.01
2022-11-22T00:16:27.154Z,5.05
2022-11-22T00:21:29.983Z,5.08
2022-11-22T00:26:34.100Z,5.09
2022-11-22T00:31:36.887Z,5.13
2022-11-22T00:36:39.638Z,5.14
2022-11-22T00:41:43.785Z,5.18
2022-11-22T00:46:46.565Z,5.22
2022-11-22T00:51:49.477Z,5.26
2022-11-22T00:56:53.673Z,5.27
2022-11-22T01:01:56.940Z,5.28
2022-11-22T01:06:59.760Z,5.24
2022-11-22T01:12:04.040Z,5.26
2022-11-22T01:17:07.046Z,5.29
2022-11-22T01:22:09.834Z,5.30
2022-11-22T01:27:13.932Z,5.29
2022-11-22T01:32:16.713Z,5.32
2022-11-22T01:37:19.503Z,5.38
2022-11-22T01:42:23.566Z,5.40
2022-11-22T01:47:26.513Z,5.43
2022-11-22T01:52:33.574Z,5.45
2022-11-22T01:57:41.712Z,5.46
2022-11-22T02:02:47.097Z,5.49
2022-11-22T02:07:55.652Z,5.52
2022-11-22T02:13:00.994Z,5.55
2022-11-22T02:18:03.807Z,5.58
2022-11-22T02:23:13.005Z,5.59
2022-11-22T02:28:17.219Z,5.62
2022-11-22T02:33:19.979Z,5.61
2022-11-22T02:38:25.384Z,5.55
2022-11-22T02:43:32.425Z,5.46
2022-11-22T02:48:35.644Z,5.46
2022-11-22T02:53:38.585Z,5.45
2022-11-22T02:58:43.772Z,5.45
2022-11-22T03:03:46.464Z,5.46
2022-11-22T03:08:54.719Z,5.45
2022-11-22T03:14:00.324Z,5.46
2022-11-22T03:19:03.064Z,5.45
2022-11-22T03:24:06.865Z,5.46
2022-11-22T03:29:11.439Z,5.41
2022-11-22T03:34:14.314Z,5.37
2022-11-22T03:39:17.094Z,5.40
2022-11-22T03:44:21.150Z,5.37
2022-11-22T03:49:23.917Z,5.31
2022-11-22T03:54:26.681Z,5.22
2022-11-22T03:59:30.871Z,5.14
2022-11-22T04:04:33.746Z,5.06
2022-11-22T04:09:36.679Z,5.00
2022-11-22T04:14:58.362Z,4.91
2022-11-22T04:20:22.804Z,4.80
2022-11-22T04:25:25.874Z,4.76
2022-11-22T04:30:45.494Z,4.66
2022-11-22T04:35:48.778Z,4.63
2022-11-22T04:40:51.687Z,4.60
2022-11-22T04:45:55.737Z,4.51
2022-11-22T04:51:15.889Z,4.54
2022-11-22T04:56:19.064Z,4.59
2022-11-22T05:01:23.218Z,4.64
2022-11-22T05:06:26.093Z,4.64
2022-11-22T05:11:28.938Z,4.67
2022-11-22T05:16:33.155Z,4.67
2022-11-22T05:21:37.400Z,4.61
2022-11-22T05:26:40.222Z,4.56
2022-11-22T05:31:51.031Z,4.54
2022-11-22T05:36:54.392Z,4.55
2022-11-22T05:41:57.104Z,4.56
2022-11-22T05:47:01.292Z,4.55
2022-11-22T05:52:05.180Z,4.62
2022-11-22T05:57:07.984Z,4.64
2022-11-22T06:02:12.201Z,4.60
2022-11-22T06:07:15.100Z,4.59
2022-11-22T06:12:18.014Z,4.60
2022-11-22T06:17:22.166Z,4.57
2022-11-22T06:22:24.970Z,4.58
2022-11-22T06:27:27.803Z,4.63
2022-11-22T06:32:35.021Z,4.67
2022-11-22T06:37:38.204Z,4.79
2022-11-22T06:42:40.949Z,4.86
2022-11-22T06:47:45.097Z,4.88
2022-11-22T06:52:51.993Z,4.91
2022-11-22T06:57:54.782Z,4.95
2022-11-22T07:02:58.848Z,5.00
2022-11-22T07:08:07.854Z,5.11
2022-11-22T07:13:10.836Z,5.19
2022-11-22T07:18:14.997Z,5.25
2022-11-22T07:23:17.986Z,5.28
2022-11-22T07:28:22.163Z,5.35
2022-11-22T07:33:27.024Z,5.39
2022-11-22T07:38:30.805Z,5.45
2022-11-22T07:43:34.119Z,5.51
2022-11-22T07:48:38.746Z,5.53
2022-11-22T07:53:41.778Z,5.57
2022-11-22T07:58:44.547Z,5.63
2022-11-22T08:03:48.923Z,5.65
2022-11-22T08:08:54.534Z,5.75
2022-11-22T08:14:00.414Z,5.76
2022-11-22T08:19:05.668Z,5.82
2022-11-22T08:24:08.473Z,5.83
2022-11-22T08:29:14.528Z,5.82
2022-11-22T08:34:18.902Z,6.03
2022-11-22T08:39:22.838Z,6.03
2022-11-22T08:44:25.723Z,5.96
2022-11-22T08:49:30.091Z,6.00
2022-11-22T08:54:37.544Z,6.00
2022-11-22T08:59:40.968Z,6.06
2022-11-22T09:04:45.537Z,6.34
2022-11-22T09:09:48.616Z,6.45
2022-11-22T09:14:51.979Z,6.31
2022-11-22T09:20:00.528Z,6.29
2022-11-22T09:25:03.345Z,6.18
2022-11-22T09:30:07.346Z,6.34
2022-11-22T09:35:12.146Z,6.33
2022-11-22T09:40:16.533Z,6.32
2022-11-22T09:45:39.428Z,6.42
2022-11-22T09:50:53.077Z,6.46
2022-11-22T09:56:00.813Z,6.88
2022-11-22T10:01:10.028Z,6.88
2022-11-22T10:06:22.005Z,6.73
2022-11-22T10:11:36.962Z,7.08
2022-11-22T10:16:45.273Z,6.94
2022-11-22T10:21:49.513Z,6.64
2022-11-22T10:26:54.370Z,6.85
2022-11-22T10:32:08.469Z,7.06
2022-11-22T10:37:23.464Z,6.85
2022-11-22T10:42:50.897Z,6.79
2022-11-22T10:48:08.404Z,7.20
2022-11-22T10:53:23.599Z,7.12
2022-11-22T10:58:36.308Z,7.36
2022-11-22T11:03:44.903Z,7.73
2022-11-22T11:14:27.386Z,7.32
2022-11-22T11:19:33.968Z,7.17
2022-11-22T11:24:41.915Z,7.12
2022-11-22T11:29:47.988Z,7.22
2022-11-22T11:34:56.004Z,7.09
2022-11-22T11:40:01.635Z,7.42
2022-11-22T11:45:27.944Z,7.63
2022-11-22T11:50:31.912Z,7.54
2022-11-22T11:55:38.229Z,7.61
2022-11-22T12:00:41.799Z,7.39
2022-11-22T12:05:44.801Z,7.42
2022-11-22T12:10:58.578Z,7.28
2022-11-22T12:16:10.464Z,7.27
2022-11-22T12:21:19.946Z,7.17
2022-11-22T12:26:24.061Z,7.20
2022-11-22T12:31:33.076Z,7.40
2022-11-22T12:36:42.802Z,7.35
2022-11-22T12:41:49.954Z,7.35
2022-11-22T12:46:58.580Z,7.38
2022-11-22T12:52:09.511Z,7.32
2022-11-22T12:57:22.238Z,7.17
2022-11-22T13:02:35.451Z,7.36
2022-11-22T13:07:50.922Z,7.49
2022-11-22T13:12:56.950Z,7.63
2022-11-22T13:18:00.925Z,7.31
2022-11-22T13:23:21.006Z,7.15
2022-11-22T13:28:29.225Z,7.16
2022-11-22T13:33:32.831Z,7.17
2022-11-22T13:38:35.976Z,7.11
2022-11-22T13:43:56.514Z,7.14
2022-11-22T13:49:32.535Z,7.10
2022-11-22T13:55:29.501Z,6.83
2022-11-22T14:00:43.332Z,6.67
2022-11-22T14:05:49.831Z,6.67
2022-11-22T14:11:09.086Z,6.78
2022-11-22T14:16:29.561Z,6.72
2022-11-22T14:22:02.753Z,6.64
2022-11-22T14:27:20.365Z,6.69
2022-11-22T14:32:27.102Z,6.69
2022-11-22T14:37:46.434Z,6.66
2022-11-22T14:42:53.649Z,6.61
2022-11-22T14:48:04.412Z,6.58
2022-11-22T14:53:21.144Z,6.62
2022-11-22T14:58:29.392Z,6.60
2022-11-22T15:09:19.457Z,6.56
2022-11-22T15:09:53.712Z,6.55
2022-11-22T15:58:57.325Z,6.38
2022-11-22T16:04:00.671Z,6.38
2022-11-22T16:09:06.412Z,6.36
2022-11-22T16:14:43.956Z,6.37
2022-11-22T16:19:46.797Z,6.34
2022-11-22T16:24:51.190Z,6.36
2022-11-22T16:29:54.246Z,6.33
2022-11-22T16:35:21.747Z,6.34
2022-11-22T16:40:22.138Z,6.34
2022-11-22T16:45:25.003Z,6.33
2022-11-22T16:50:27.902Z,6.32
2022-11-22T16:55:32.092Z,6.34
2022-11-22T17:00:35.391Z,6.32
2022-11-22T17:05:38.322Z,6.36
2022-11-22T17:10:45.522Z,6.35
2022-11-22T17:15:49.354Z,6.36
2022-11-22T17:20:52.226Z,6.38
2022-11-22T17:25:56.347Z,6.40
2022-11-22T17:31:00.146Z,6.39
2022-11-22T17:36:03.033Z,6.39
2022-11-22T17:41:07.481Z,6.44
2022-11-22T17:46:10.289Z,6.45
2022-11-22T17:51:13.741Z,6.47
2022-11-22T17:56:18.189Z,6.50
2022-11-22T18:01:23.491Z,6.51
2022-11-22T18:06:27.129Z,6.52
2022-11-22T18:11:31.398Z,6.53
2022-11-22T18:16:34.336Z,6.54
2022-11-22T18:21:37.759Z,6.54
2022-11-22T18:26:42.510Z,6.54
2022-11-22T18:31:54.472Z,6.55
2022-11-22T18:37:01.872Z,6.56
2022-11-22T18:42:07.956Z,6.57
2022-11-22T18:47:10.798Z,6.59
2022-11-22T18:52:16.595Z,6.64
2022-11-22T18:57:22.907Z,6.65
2022-11-22T19:02:28.297Z,6.64
2022-11-22T19:07:31.264Z,6.65
2022-11-22T19:12:35.518Z,6.64
2022-11-22T19:17:39.409Z,6.65
2022-11-22T19:22:42.176Z,6.69
2022-11-22T19:27:48.176Z,6.69
2022-11-22T19:32:51.938Z,6.69
2022-11-22T19:37:54.641Z,6.70
2022-11-22T19:42:58.918Z,6.72
2022-11-22T19:48:01.656Z,6.75
2022-11-22T19:53:04.534Z,6.76
2022-11-22T19:58:08.818Z,6.76
2022-11-22T20:03:13.585Z,6.76
2022-11-22T20:08:16.345Z,6.75
2022-11-22T20:13:20.574Z,6.74
2022-11-22T20:18:23.737Z,6.74
2022-11-22T20:23:26.620Z,6.77
2022-11-22T20:28:31.018Z,6.74
2022-11-22T20:33:34.948Z,6.74
2022-11-22T20:38:39.596Z,6.77
2022-11-22T20:43:44.297Z,6.77
2022-11-22T20:48:48.081Z,6.76
2022-11-22T20:53:52.110Z,6.78
2022-11-22T20:58:56.409Z,6.80
2022-11-22T21:03:59.309Z,6.78
2022-11-22T21:09:02.267Z,6.80
2022-11-22T21:14:06.584Z,6.80
2022-11-22T21:19:10.402Z,6.80
2022-11-22T21:24:13.995Z,6.80
2022-11-22T21:29:18.217Z,6.83
2022-11-22T21:34:21.062Z,6.83
2022-11-22T21:39:23.818Z,6.87
2022-11-22T21:44:28.223Z,6.88
2022-11-22T21:49:31.185Z,6.87
2022-11-22T21:54:34.209Z,6.90
2022-11-22T21:59:38.398Z,6.89
2022-11-22T22:04:41.193Z,6.87
2022-11-22T22:09:43.947Z,6.87
2022-11-22T22:14:48.179Z,6.87
2022-11-22T22:19:52.343Z,6.89
2022-11-22T22:24:55.106Z,6.88
2022-11-22T22:29:59.312Z,6.90
2022-11-22T22:35:03.271Z,6.88
2022-11-22T22:40:06.977Z,6.91
2022-11-22T22:45:12.406Z,6.90
2022-11-22T22:50:15.901Z,6.92
2022-11-22T22:55:18.757Z,6.90
2022-11-22T23:00:22.930Z,6.90
2022-11-22T23:05:26.256Z,6.88
2022-11-22T23:10:29.019Z,6.87
2022-11-22T23:15:50.853Z,6.92
2022-11-22T23:20:59.530Z,6.92
2022-11-22T23:26:03.004Z,6.92
2022-11-22T23:31:08.554Z,6.93
2022-11-22T23:36:13.219Z,6.95
2022-11-22T23:41:18.168Z,6.98
2022-11-22T23:46:24.939Z,6.96
2022-11-22T23:51:29.083Z,6.94
2022-11-22T23:56:34.461Z,6.94
